| |
Missouri Department of Transportation

Social Media Facebook Twitter Flickr Blog YouTube RSS

Current AWOS Information

 
AWOS Home - General Info for all Airports
Current AWOS for all Airports - Current METAR for all Airports
Glossary - Disclaimer - Other Links


HANNIBAL--HANNIBAL REGIONAL--KHAE
 
Recent AWOS History
 
08/27/14     01:42 PM CDT      18:42 GMT
Air Temperature 83°F (28°C ) 1st Cloud Layer Scattered at 1,500 feet
Dew Point 72°F (22°C) 2nd Cloud Layer  
Barometric Pressure 30.13 in Hg. 3rd Cloud Layer  
Wind Speed 4 mph (4 knots) Density Altitude 2300 feet
Peak Wind Gusts   Variable Wind Directions  
Wind Direction Quadrant(010°) Variable Visibility  
Visibility 10 statute miles  

Thunderstorm and Precipitation Identification: 
Thunderstorm Remarks:  Lightning Distant East

Current METAR Record: METAR KHAE 271840Z AUTO 35004KT 10SM SCT015 28/22 A3013 RMK AO2 LTG DSNT E

 

 

 

About Us
How Do I...
Contact Us
Missouri Department of Transportation
Central Office
105 W. Capitol Avenue
Jefferson City, MO 65102
1-888-ASK-MODOT (275-6636)
1-866-831-6277 (Motor Carrier Services)
Drivers License Offices
horz_bar
| | |
Missouri State Government
© 2013 Missouri Department of Transportation. All Rights Reserved.   Privacy Policy.
 
 
 
 
RSS FeedYoutubeBlogFlickrTwitter Facebook